Time;durP1;ratioP1;P1;durP2;ratioP2;P2;SDS_P1;SDS_P2;PMS_P1;PMS_P2;Temp;Humidity;BMP_temperature;BMP_pressure;BME280_temperature;BME280_humidity;BME280_pressure;Samples;Min_cycle;Max_cycle;Signal;HPM_P1;HPM_P2
2024/04/26 00:02:25;;;;;;;8.75;4.20;;;;;;;;;;5356622;26;20019;-61
2024/04/26 00:04:54;;;;;;;7.30;3.45;;;;;;;;;;5358929;26;20015;-61
2024/04/26 00:07:23;;;;;;;12.07;4.05;;;;;;;;;;5341953;26;20092;-61
2024/04/26 00:09:52;;;;;;;9.52;3.90;;;;;;;;;;5364474;26;20107;-61
2024/04/26 00:12:20;;;;;;;8.93;4.05;;;;;;;;;;5361023;26;20000;-61
2024/04/26 00:14:48;;;;;;;9.48;3.95;;;;;;;;;;5358666;26;20349;-61
2024/04/26 00:17:19;;;;;;;13.70;4.15;;;;;;;;;;5354068;26;20075;-61
2024/04/26 00:19:49;;;;;;;9.40;4.25;;;;;;;;;;5353713;26;20008;-62
2024/04/26 00:22:17;;;;;;;8.77;3.92;;;;;;;;;;5357550;26;20015;-62
2024/04/26 00:24:45;;;;;;;10.07;4.13;;;;;;;;;;5355676;26;20047;-62
2024/04/26 00:27:14;;;;;;;10.02;4.18;;;;;;;;;;5354691;26;20016;-61
2024/04/26 00:29:43;;;;;;;9.32;4.13;;;;;;;;;;5353027;26;20019;-61
2024/04/26 00:32:11;;;;;;;11.15;4.30;;;;;;;;;;5358199;26;20036;-61
2024/04/26 00:34:43;;;;;;;8.77;3.78;;;;;;;;;;5355712;26;20044;-61
2024/04/26 00:37:11;;;;;;;10.35;4.60;;;;;;;;;;5341407;26;20016;-60
2024/04/26 00:39:43;;;;;;;8.82;4.00;;;;;;;;;;5356081;26;20009;-60
2024/04/26 00:42:11;;;;;;;11.63;5.43;;;;;;;;;;5358774;26;20024;-61
2024/04/26 00:44:40;;;;;;;12.55;5.35;;;;;;;;;;5358186;26;20037;-61
2024/04/26 00:47:09;;;;;;;11.27;5.32;;;;;;;;;;5353078;26;20008;-60
2024/04/26 00:49:38;;;;;;;12.55;4.93;;;;;;;;;;5356131;26;20019;-61
2024/04/26 00:52:11;;;;;;;9.30;4.18;;;;;;;;;;5357020;26;20109;-60
2024/04/26 00:54:39;;;;;;;8.57;4.13;;;;;;;;;;5356301;26;20016;-60
2024/04/26 00:57:08;;;;;;;9.40;3.72;;;;;;;;;;5337537;26;20131;-60
2024/04/26 00:59:39;;;;;;;8.90;3.67;;;;;;;;;;5364168;26;20115;-60
2024/04/26 01:02:07;;;;;;;12.18;4.25;;;;;;;;;;5372297;26;20044;-61
2024/04/26 01:04:36;;;;;;;13.18;4.25;;;;;;;;;;5359043;26;20004;-62
2024/04/26 01:07:04;;;;;;;10.32;4.18;;;;;;;;;;5328275;26;20013;-60
2024/04/26 01:09:35;;;;;;;7.22;3.70;;;;;;;;;;5353291;26;20008;-60
2024/04/26 01:12:09;;;;;;;14.43;4.18;;;;;;;;;;5354130;26;20070;-60
2024/04/26 01:14:37;;;;;;;8.50;4.10;;;;;;;;;;5360395;26;20023;-60
2024/04/26 01:17:05;;;;;;;8.63;3.78;;;;;;;;;;5356258;26;20001;-60
2024/04/26 01:19:36;;;;;;;10.27;4.32;;;;;;;;;;5359627;26;20033;-60
2024/04/26 01:22:10;;;;;;;8.45;4.32;;;;;;;;;;5349596;26;19997;-61
2024/04/26 01:24:41;;;;;;;10.57;4.22;;;;;;;;;;5363253;26;20055;-61
2024/04/26 01:27:09;;;;;;;11.13;4.53;;;;;;;;;;5352222;26;20015;-62
2024/04/26 01:29:37;;;;;;;9.23;3.78;;;;;;;;;;5355930;26;20000;-61
2024/04/26 01:32:06;;;;;;;7.97;3.88;;;;;;;;;;5357088;26;20050;-61
2024/04/26 01:34:34;;;;;;;;;;;;;;;;;;5360939;26;20036;-60
2024/04/26 01:37:02;;;;;;;9.63;3.40;;;;;;;;;;5331183;26;19991;-61
2024/04/26 01:39:31;;;;;;;8.85;3.90;;;;;;;;;;5375776;26;20020;-61
2024/04/26 01:42:02;;;;;;;10.00;3.95;;;;;;;;;;5353285;26;20004;-60
2024/04/26 01:44:31;;;;;;;9.15;3.85;;;;;;;;;;5361152;26;20000;-61
2024/04/26 01:46:59;;;;;;;10.10;4.55;;;;;;;;;;5358332;26;20011;-60
2024/04/26 01:49:27;;;;;;;8.55;4.18;;;;;;;;;;5360472;26;20011;-62
2024/04/26 01:51:56;;;;;;;12.75;4.65;;;;;;;;;;5351349;26;20208;-61
2024/04/26 01:54:24;;;;;;;9.00;4.03;;;;;;;;;;5363812;26;20008;-62
2024/04/26 01:56:49;;;;;;;8.43;3.80;;;;;;;;;;5357855;26;20011;-62
2024/04/26 01:59:20;;;;;;;11.85;4.82;;;;;;;;;;5358524;26;20000;-61
2024/04/26 02:01:46;;;;;;;9.70;4.32;;;;;;;;;;5359332;26;20016;-61
2024/04/26 02:04:14;;;;;;;13.32;5.10;;;;;;;;;;5341262;26;20016;-60
2024/04/26 02:06:40;;;;;;;12.93;4.70;;;;;;;;;;5353090;26;20098;-61
2024/04/26 02:09:08;;;;;;;11.43;4.65;;;;;;;;;;5360130;26;20020;-62
2024/04/26 02:11:37;;;;;;;9.00;3.67;;;;;;;;;;5360668;26;20000;-65
2024/04/26 02:14:05;;;;;;;9.43;3.85;;;;;;;;;;5355946;26;20004;-60
2024/04/26 02:16:34;;;;;;;10.27;3.97;;;;;;;;;;5359052;26;20004;-60
2024/04/26 02:19:02;;;;;;;9.02;3.97;;;;;;;;;;5361854;26;20134;-62
2024/04/26 02:21:27;;;;;;;10.43;3.88;;;;;;;;;;5359435;26;20048;-60
2024/04/26 02:23:56;;;;;;;9.68;3.75;;;;;;;;;;5323643;26;19996;-61
2024/04/26 02:26:21;;;;;;;7.97;3.65;;;;;;;;;;5362455;26;20099;-61
2024/04/26 02:28:50;;;;;;;9.18;3.95;;;;;;;;;;5360879;26;20016;-61
2024/04/26 02:31:22;;;;;;;11.02;4.65;;;;;;;;;;5363227;26;20000;-61
2024/04/26 02:33:53;;;;;;;9.32;3.75;;;;;;;;;;5341182;26;20021;-61
2024/04/26 02:36:21;;;;;;;11.30;3.97;;;;;;;;;;5361194;26;20011;-61
2024/04/26 02:38:50;;;;;;;10.45;4.10;;;;;;;;;;5361294;26;20102;-61
2024/04/26 02:41:18;;;;;;;9.10;4.03;;;;;;;;;;5358838;26;20011;-61
2024/04/26 02:43:47;;;;;;;8.68;3.67;;;;;;;;;;5347176;26;20011;-60
2024/04/26 02:46:15;;;;;;;11.75;4.15;;;;;;;;;;5360097;26;20020;-61
2024/04/26 02:48:44;;;;;;;;;;;;;;;;;;5358991;26;20000;-61
2024/04/26 02:51:15;;;;;;;7.18;3.55;;;;;;;;;;5360067;26;19925;-60
2024/04/26 02:53:44;;;;;;;8.55;3.80;;;;;;;;;;5339827;26;20055;-62
2024/04/26 02:56:12;;;;;;;11.15;4.40;;;;;;;;;;5358957;26;20111;-61
2024/04/26 02:58:41;;;;;;;9.32;4.00;;;;;;;;;;5361367;26;20008;-60
2024/04/26 03:01:09;;;;;;;10.82;4.13;;;;;;;;;;5357760;26;20019;-62
2024/04/26 03:03:38;;;;;;;;;;;;;;;;;;5355981;26;19996;-62
2024/04/26 03:06:08;;;;;;;9.73;3.50;;;;;;;;;;5330677;26;19932;-61
2024/04/26 03:08:40;;;;;;;8.15;3.90;;;;;;;;;;5352379;26;20037;-60
2024/04/26 03:11:09;;;;;;;11.68;4.32;;;;;;;;;;5357653;26;20008;-61
2024/04/26 03:13:38;;;;;;;10.65;4.55;;;;;;;;;;5343299;26;20044;-63
2024/04/26 03:16:06;;;;;;;;;;;;;;;;;;5334741;26;21215;-61
2024/04/26 03:18:37;;;;;;;10.15;4.10;;;;;;;;;;5323896;26;19926;-63
2024/04/26 03:21:05;;;;;;;10.55;4.53;;;;;;;;;;5335543;26;20016;-61
2024/04/26 03:23:34;;;;;;;12.45;4.68;;;;;;;;;;5328958;26;21005;-61
2024/04/26 03:26:05;;;;;;;8.05;4.20;;;;;;;;;;5318112;26;20008;-62
2024/04/26 03:28:33;;;;;;;8.85;4.55;;;;;;;;;;5336305;26;20005;-61
2024/04/26 03:31:02;;;;;;;9.50;4.53;;;;;;;;;;5334803;26;20016;-62
2024/04/26 03:33:30;;;;;;;13.82;5.20;;;;;;;;;;5305336;26;20024;-62
2024/04/26 03:35:58;;;;;;;10.23;4.10;;;;;;;;;;5355539;26;20130;-61
2024/04/26 03:38:27;;;;;;;12.18;5.15;;;;;;;;;;5307936;26;20005;-61
2024/04/26 03:40:55;;;;;;;12.68;4.35;;;;;;;;;;5305763;26;20045;-60
2024/04/26 03:43:26;;;;;;;10.75;4.43;;;;;;;;;;5320110;26;20135;-61
2024/04/26 03:45:56;;;;;;;10.85;4.90;;;;;;;;;;5291773;26;20037;-62
2024/04/26 03:48:24;;;;;;;11.35;4.75;;;;;;;;;;5324093;26;20064;-61
2024/04/26 03:50:52;;;;;;;11.82;4.38;;;;;;;;;;5322980;26;20001;-62
2024/04/26 03:53:20;;;;;;;9.30;4.32;;;;;;;;;;5310831;26;20434;-61
2024/04/26 03:55:49;;;;;;;9.10;4.55;;;;;;;;;;5337634;26;20040;-62
2024/04/26 03:58:17;;;;;;;9.40;4.53;;;;;;;;;;5358977;26;20004;-61
2024/04/26 04:00:48;;;;;;;11.88;4.80;;;;;;;;;;5342458;26;20039;-64
2024/04/26 04:03:20;;;;;;;11.00;4.40;;;;;;;;;;5358273;26;20040;-62
2024/04/26 04:05:49;;;;;;;10.60;4.68;;;;;;;;;;5301526;26;20098;-61
2024/04/26 04:08:17;;;;;;;11.55;4.55;;;;;;;;;;5317979;26;20015;-61
2024/04/26 04:10:46;;;;;;;13.23;4.30;;;;;;;;;;5324536;26;20112;-61
2024/04/26 04:13:14;;;;;;;11.35;4.80;;;;;;;;;;5323772;26;20037;-61
2024/04/26 04:15:48;;;;;;;10.15;5.10;;;;;;;;;;5332054;26;20140;-62
2024/04/26 04:18:16;;;;;;;9.25;4.50;;;;;;;;;;5323118;26;20001;-61
2024/04/26 04:20:44;;;;;;;8.68;4.10;;;;;;;;;;5324269;26;20020;-61
2024/04/26 04:23:12;;;;;;;12.95;5.55;;;;;;;;;;5322942;26;20036;-61
2024/04/26 04:25:42;;;;;;;9.65;4.32;;;;;;;;;;5296605;26;20005;-60
2024/04/26 04:28:11;;;;;;;9.23;4.47;;;;;;;;;;5319854;26;20016;-60
2024/04/26 04:30:40;;;;;;;10.95;4.65;;;;;;;;;;5324125;26;20041;-61
2024/04/26 04:33:12;;;;;;;10.85;5.45;;;;;;;;;;5321993;26;20005;-61
2024/04/26 04:35:41;;;;;;;11.65;4.55;;;;;;;;;;5341648;26;20000;-61
2024/04/26 04:38:11;;;;;;;11.82;5.53;;;;;;;;;;5333338;26;20010;-61
2024/04/26 04:40:39;;;;;;;17.77;5.93;;;;;;;;;;5335411;26;20081;-61
2024/04/26 04:43:10;;;;;;;;;;;;;;;;;;5346524;26;20017;-61
2024/04/26 04:45:42;;;;;;;10.50;4.40;;;;;;;;;;5349584;26;19956;-66
2024/04/26 04:48:15;;;;;;;11.52;4.28;;;;;;;;;;5357973;26;20001;-60
2024/04/26 04:50:43;;;;;;;8.32;3.95;;;;;;;;;;5377887;26;20045;-62
2024/04/26 04:53:12;;;;;;;8.38;3.97;;;;;;;;;;5356039;26;20063;-62
2024/04/26 04:55:46;;;;;;;11.55;4.22;;;;;;;;;;5251597;26;20010;-62
2024/04/26 04:58:14;;;;;;;8.23;4.03;;;;;;;;;;5326671;26;20005;-62
2024/04/26 05:00:43;;;;;;;8.80;4.13;;;;;;;;;;5320653;26;20001;-62
2024/04/26 05:03:14;;;;;;;16.55;7.25;;;;;;;;;;5323403;26;20004;-62
2024/04/26 05:05:46;;;;;;;11.15;4.65;;;;;;;;;;5233752;26;20006;-63
2024/04/26 05:08:15;;;;;;;9.05;4.22;;;;;;;;;;5330869;26;20008;-62
2024/04/26 05:10:43;;;;;;;7.47;3.28;;;;;;;;;;5333133;26;20008;-62
2024/04/26 05:13:13;;;;;;;11.23;4.13;;;;;;;;;;5326731;26;20008;-61
2024/04/26 05:15:48;;;;;;;8.30;4.05;;;;;;;;;;5271818;26;20009;-65
2024/04/26 05:18:19;;;;;;;8.52;4.07;;;;;;;;;;5303473;26;20006;-62
2024/04/26 05:20:47;;;;;;;10.35;4.25;;;;;;;;;;5324306;26;20001;-61
2024/04/26 05:23:19;;;;;;;10.50;4.22;;;;;;;;;;5341382;26;20006;-60
2024/04/26 05:25:47;;;;;;;11.75;5.50;;;;;;;;;;5293711;26;20001;-61
2024/04/26 05:28:16;;;;;;;13.73;5.95;;;;;;;;;;5358609;26;20015;-62
2024/04/26 05:30:47;;;;;;;19.45;8.18;;;;;;;;;;5356651;26;20015;-61
2024/04/26 05:33:19;;;;;;;23.35;9.55;;;;;;;;;;5340664;26;20005;-60
2024/04/26 05:35:47;;;;;;;14.50;6.25;;;;;;;;;;5307924;26;20018;-59
2024/04/26 05:38:17;;;;;;;13.25;5.28;;;;;;;;;;5306923;26;20016;-60
2024/04/26 05:40:48;;;;;;;11.63;5.28;;;;;;;;;;5305226;26;20001;-60
2024/04/26 05:43:18;;;;;;;9.75;4.35;;;;;;;;;;5317080;26;20013;-60
2024/04/26 05:45:47;;;;;;;10.10;4.55;;;;;;;;;;5303765;26;20000;-60
2024/04/26 05:48:15;;;;;;;10.77;4.70;;;;;;;;;;5323425;26;20035;-61
2024/04/26 05:50:46;;;;;;;8.32;4.35;;;;;;;;;;5326005;26;20024;-60
2024/04/26 05:53:15;;;;;;;10.45;4.35;;;;;;;;;;5328444;26;20087;-61
2024/04/26 05:55:43;;;;;;;12.00;5.20;;;;;;;;;;5299221;26;20016;-60
2024/04/26 05:58:12;;;;;;;11.32;4.88;;;;;;;;;;5322788;26;20016;-60
2024/04/26 06:00:41;;;;;;;;;;;;;;;;;;5312028;26;20017;-60
2024/04/26 06:03:10;;;;;;;10.50;3.83;;;;;;;;;;5325184;26;19985;-60
2024/04/26 06:05:39;;;;;;;12.02;4.63;;;;;;;;;;5248459;26;20003;-61
2024/04/26 06:08:10;;;;;;;;;;;;;;;;;;5329736;26;20004;-61
2024/04/26 06:10:38;;;;;;;8.93;3.88;;;;;;;;;;5338600;26;19925;-61
2024/04/26 06:13:09;;;;;;;9.52;4.15;;;;;;;;;;5337906;26;20066;-60
2024/04/26 06:15:40;;;;;;;8.75;3.97;;;;;;;;;;5340674;26;20019;-62
2024/04/26 06:18:09;;;;;;;9.73;3.92;;;;;;;;;;5365880;26;20032;-60
2024/04/26 06:20:37;;;;;;;9.10;4.30;;;;;;;;;;5373794;26;20068;-61
2024/04/26 06:23:07;;;;;;;11.13;5.88;;;;;;;;;;5347796;26;20000;-61
2024/04/26 14:25:03;;;;;;;1.55;0.90;;;;;;;;;;838564;21;20342;-62
2024/04/26 14:27:31;;;;;;;1.80;0.80;;;;;;;;;;5226533;27;20002;-65
2024/04/26 14:30:00;;;;;;;2.28;0.77;;;;;;;;;;5238805;27;20042;-63
2024/04/26 14:32:28;;;;;;;2.10;0.77;;;;;;;;;;5245034;27;20084;-65
2024/04/26 14:34:56;;;;;;;0.77;0.50;;;;;;;;;;5243878;26;20009;-65
2024/04/26 14:37:25;;;;;;;;;;;;;;;;;;5218672;27;20022;-65
2024/04/26 14:39:53;;;;;;;;;;;;;;;;;;5244079;27;19971;-64
2024/04/26 14:42:25;;;;;;;7.95;3.10;;;;;;;;;;5246921;27;20018;-62
2024/04/26 14:44:54;;;;;;;5.28;0.90;;;;;;;;;;5233425;27;20019;-61
2024/04/26 14:47:22;;;;;;;1.50;0.70;;;;;;;;;;5221996;27;20072;-63
2024/04/26 14:49:51;;;;;;;4.65;0.70;;;;;;;;;;5233324;27;20007;-65
2024/04/26 14:52:20;;;;;;;1.85;0.60;;;;;;;;;;5235288;27;20003;-63
2024/04/26 14:54:49;;;;;;;1.35;0.70;;;;;;;;;;5218847;27;20050;-63
2024/04/26 14:57:18;;;;;;;0.63;0.32;;;;;;;;;;5216168;27;21410;-64
2024/04/26 14:59:51;;;;;;;0.57;0.50;;;;;;;;;;5243319;27;20117;-64
2024/04/26 15:02:21;;;;;;;0.85;0.50;;;;;;;;;;5242807;26;20089;-64
2024/04/26 15:04:49;;;;;;;1.58;0.60;;;;;;;;;;5239651;27;20042;-65
2024/04/26 15:07:21;;;;;;;1.50;0.60;;;;;;;;;;5204405;27;20022;-65
2024/04/26 15:09:50;;;;;;;3.25;0.60;;;;;;;;;;5230911;27;20006;-62
2024/04/26 15:12:18;;;;;;;1.42;0.57;;;;;;;;;;5230146;27;20030;-65
2024/04/26 15:14:50;;;;;;;1.70;0.52;;;;;;;;;;5239789;27;20075;-65
2024/04/26 15:17:18;;;;;;;1.60;0.50;;;;;;;;;;5221099;27;20006;-64
2024/04/26 15:19:48;;;;;;;0.82;0.45;;;;;;;;;;5248358;27;20227;-65
2024/04/26 15:22:19;;;;;;;0.35;0.30;;;;;;;;;;5252800;27;20010;-64
2024/04/26 15:24:50;;;;;;;0.50;0.50;;;;;;;;;;5239571;27;20004;-65
2024/04/26 15:27:23;;;;;;;1.52;0.47;;;;;;;;;;5215678;27;20964;-62
2024/04/26 15:30:00;;;;;;;0.80;0.60;;;;;;;;;;5241945;27;20042;-67
2024/04/26 15:32:32;;;;;;;0.77;0.60;;;;;;;;;;5234488;27;20029;-66
2024/04/26 15:35:04;;;;;;;1.13;0.70;;;;;;;;;;5225424;26;20007;-66
2024/04/26 15:37:32;;;;;;;3.28;0.80;;;;;;;;;;5218850;27;20144;-64
2024/04/26 15:40:01;;;;;;;1.75;0.70;;;;;;;;;;5241208;27;20062;-62
2024/04/26 15:42:29;;;;;;;2.00;0.80;;;;;;;;;;5247011;27;20021;-63
2024/04/26 15:45:00;;;;;;;1.05;0.70;;;;;;;;;;5240796;27;20005;-62
2024/04/26 15:47:30;;;;;;;1.20;0.70;;;;;;;;;;5236396;27;19999;-65
2024/04/26 15:49:58;;;;;;;4.60;1.08;;;;;;;;;;5245365;27;20068;-64
2024/04/26 15:52:28;;;;;;;1.38;0.80;;;;;;;;;;5244545;27;20133;-63
2024/04/26 15:54:57;;;;;;;3.38;0.90;;;;;;;;;;5229731;27;20081;-62
2024/04/26 15:57:26;;;;;;;1.88;1.00;;;;;;;;;;5219528;27;20015;-62
2024/04/26 15:59:54;;;;;;;;;;;;;;;;;;5246026;27;20007;-62
2024/04/26 16:02:27;;;;;;;;;;;;;;;;;;5234790;27;19926;-64
2024/04/26 16:04:56;;;;;;;0.95;0.80;;;;;;;;;;5222230;27;19967;-63
2024/04/26 16:07:24;;;;;;;1.20;0.77;;;;;;;;;;5229003;27;20006;-61
2024/04/26 16:09:53;;;;;;;2.70;1.05;;;;;;;;;;5225126;27;20003;-63
2024/04/26 16:12:21;;;;;;;1.70;0.90;;;;;;;;;;5240593;27;20048;-61
2024/04/26 16:14:53;;;;;;;2.72;1.00;;;;;;;;;;5251550;27;20007;-62
2024/04/26 16:17:21;;;;;;;1.85;0.90;;;;;;;;;;5210701;26;20006;-63
2024/04/26 16:19:55;;;;;;;4.68;0.90;;;;;;;;;;5226484;27;20014;-63
2024/04/26 16:22:26;;;;;;;2.75;1.10;;;;;;;;;;5247963;27;20050;-64
2024/04/26 16:24:54;;;;;;;3.78;1.20;;;;;;;;;;5234967;27;20009;-64
2024/04/26 16:27:23;;;;;;;4.47;0.98;;;;;;;;;;5205410;27;20039;-63
2024/04/26 16:29:52;;;;;;;4.55;1.60;;;;;;;;;;5250324;27;20017;-64
2024/04/26 16:32:20;;;;;;;8.38;3.05;;;;;;;;;;5225167;27;20013;-64
2024/04/26 16:34:51;;;;;;;2.60;1.20;;;;;;;;;;5242102;27;20010;-62
2024/04/26 16:37:22;;;;;;;2.08;1.25;;;;;;;;;;5229847;27;20028;-65
2024/04/26 16:39:51;;;;;;;3.75;1.05;;;;;;;;;;5246909;27;20010;-62
2024/04/26 16:42:19;;;;;;;2.85;0.90;;;;;;;;;;5244202;27;20006;-64
2024/04/26 16:44:47;;;;;;;2.70;1.02;;;;;;;;;;5246052;27;20007;-63
2024/04/26 16:47:16;;;;;;;1.55;1.00;;;;;;;;;;5169845;27;20011;-65
2024/04/26 16:49:44;;;;;;;2.70;1.15;;;;;;;;;;5235485;27;20025;-62
2024/04/26 16:52:16;;;;;;;5.30;1.13;;;;;;;;;;5256825;26;20085;-63
2024/04/26 16:54:47;;;;;;;1.83;1.00;;;;;;;;;;5240524;27;20123;-63
2024/04/26 16:57:16;;;;;;;2.25;1.00;;;;;;;;;;5217227;27;20108;-63
2024/04/26 16:59:44;;;;;;;2.35;1.02;;;;;;;;;;5246273;27;20007;-63
2024/04/26 17:02:13;;;;;;;4.82;1.48;;;;;;;;;;5239274;27;20014;-62
2024/04/26 17:04:42;;;;;;;2.13;1.00;;;;;;;;;;5233343;27;20026;-65
2024/04/26 17:07:13;;;;;;;5.82;1.58;;;;;;;;;;5225928;27;20296;-65
2024/04/26 17:09:42;;;;;;;5.82;1.15;;;;;;;;;;5234353;27;20010;-63
2024/04/26 17:12:13;;;;;;;3.08;1.30;;;;;;;;;;5248339;27;20009;-64
2024/04/26 17:14:43;;;;;;;2.65;1.20;;;;;;;;;;5244428;27;20006;-64
2024/04/26 17:17:11;;;;;;;4.75;1.30;;;;;;;;;;5225251;27;20002;-63
2024/04/26 17:19:40;;;;;;;3.33;1.38;;;;;;;;;;5243652;27;20021;-64
2024/04/26 17:22:09;;;;;;;2.70;1.02;;;;;;;;;;5245712;27;20027;-65
2024/04/26 17:24:37;;;;;;;3.25;1.23;;;;;;;;;;5246662;27;20013;-63
2024/04/26 17:27:06;;;;;;;;;;;;;;;;;;5229512;27;21065;-62
2024/04/26 17:29:37;;;;;;;2.75;1.30;;;;;;;;;;5239854;27;20000;-63
2024/04/26 17:32:07;;;;;;;1.30;1.02;;;;;;;;;;5231824;27;20003;-65
2024/04/26 17:34:35;;;;;;;5.28;1.20;;;;;;;;;;5252293;27;20010;-64
2024/04/26 17:37:05;;;;;;;5.18;1.17;;;;;;;;;;5225764;26;20013;-63
2024/04/26 17:39:33;;;;;;;3.55;1.23;;;;;;;;;;5215279;27;20018;-64
2024/04/26 17:42:01;;;;;;;2.35;1.25;;;;;;;;;;5225169;27;20023;-64
2024/04/26 17:44:30;;;;;;;3.17;1.20;;;;;;;;;;5248440;27;20050;-66
2024/04/26 17:47:03;;;;;;;2.28;1.20;;;;;;;;;;5227064;27;20003;-63
2024/04/26 17:49:33;;;;;;;3.13;1.20;;;;;;;;;;5243135;27;20038;-64
2024/04/26 17:52:01;;;;;;;11.75;4.18;;;;;;;;;;5241974;26;20011;-62
2024/04/26 17:54:32;;;;;;;6.95;3.28;;;;;;;;;;5245055;27;20039;-64
2024/04/26 17:57:05;;;;;;;4.65;2.20;;;;;;;;;;5240044;27;20025;-63
2024/04/26 17:59:34;;;;;;;5.15;1.40;;;;;;;;;;5244702;27;20026;-63
2024/04/26 18:02:05;;;;;;;4.90;1.77;;;;;;;;;;5235353;27;20036;-64
2024/04/26 18:04:33;;;;;;;7.90;1.95;;;;;;;;;;5235154;27;20006;-62
2024/04/26 18:07:03;;;;;;;6.57;1.80;;;;;;;;;;5216933;27;20081;-63
2024/04/26 18:09:31;;;;;;;5.05;2.08;;;;;;;;;;5242437;27;20007;-64
2024/04/26 18:12:00;;;;;;;4.38;1.45;;;;;;;;;;5235331;27;20039;-63
2024/04/26 18:14:28;;;;;;;3.00;1.35;;;;;;;;;;5234820;27;20002;-63
2024/04/26 18:16:57;;;;;;;;;;;;;;;;;;5229293;27;20002;-62
2024/04/26 18:19:28;;;;;;;2.45;1.10;;;;;;;;;;5240827;27;19927;-63
2024/04/26 18:21:56;;;;;;;4.00;1.65;;;;;;;;;;5248425;27;20010;-62
2024/04/26 18:24:27;;;;;;;3.10;1.23;;;;;;;;;;5249687;27;20038;-63
2024/04/26 18:26:56;;;;;;;4.18;1.20;;;;;;;;;;5238118;27;20087;-63
2024/04/26 18:29:24;;;;;;;4.53;1.10;;;;;;;;;;5246352;27;20006;-63
2024/04/26 18:31:53;;;;;;;3.97;0.88;;;;;;;;;;5249901;27;21301;-62
2024/04/26 18:34:22;;;;;;;3.13;1.10;;;;;;;;;;5237791;27;20007;-63
2024/04/26 18:36:59;;;;;;;1.63;0.95;;;;;;;;;;5213499;26;20002;-64
2024/04/26 18:39:28;;;;;;;5.00;0.90;;;;;;;;;;5227273;27;19999;-63
2024/04/26 18:41:56;;;;;;;4.78;1.20;;;;;;;;;;5234804;27;20253;-63
2024/04/26 18:44:26;;;;;;;3.75;1.33;;;;;;;;;;5245897;27;20006;-63
2024/04/26 18:47:01;;;;;;;2.85;1.00;;;;;;;;;;5237448;27;20015;-64
2024/04/26 18:49:29;;;;;;;3.78;1.08;;;;;;;;;;5241926;27;20002;-63
2024/04/26 18:52:00;;;;;;;1.83;1.00;;;;;;;;;;5243782;27;20018;-64
2024/04/26 18:54:29;;;;;;;3.38;1.15;;;;;;;;;;5247715;27;20007;-63
2024/04/26 18:56:59;;;;;;;2.22;1.05;;;;;;;;;;5212525;27;20039;-64
2024/04/26 18:59:27;;;;;;;2.10;1.10;;;;;;;;;;5235545;27;19998;-63
2024/04/26 19:01:56;;;;;;;5.60;2.67;;;;;;;;;;5236818;27;20088;-64
2024/04/26 19:04:25;;;;;;;5.82;2.55;;;;;;;;;;5248604;27;20038;-64
2024/04/26 19:07:01;;;;;;;12.05;5.05;;;;;;;;;;5255596;27;20021;-65
2024/04/26 19:09:29;;;;;;;21.73;12.00;;;;;;;;;;5255813;27;20054;-65
2024/04/26 19:11:55;;;;;;;9.77;4.93;;;;;;;;;;5221317;27;20054;-63
2024/04/26 19:14:23;;;;;;;5.03;1.95;;;;;;;;;;5237195;27;20017;-62
2024/04/26 19:16:54;;;;;;;3.35;1.42;;;;;;;;;;5232610;27;20180;-62
2024/04/26 19:19:23;;;;;;;4.30;1.42;;;;;;;;;;5237349;27;20002;-62
2024/04/26 19:21:51;;;;;;;4.40;1.73;;;;;;;;;;5240193;27;20022;-61
2024/04/26 19:24:22;;;;;;;4.15;1.50;;;;;;;;;;5247892;27;20042;-62
2024/04/26 19:26:55;;;;;;;4.10;1.83;;;;;;;;;;5234545;27;20054;-62
2024/04/26 19:29:24;;;;;;;4.00;1.50;;;;;;;;;;5243852;27;21376;-62
2024/04/26 19:31:52;;;;;;;3.53;1.45;;;;;;;;;;5233941;27;20115;-63
2024/04/26 19:34:20;;;;;;;4.07;1.70;;;;;;;;;;5237702;27;20011;-65
2024/04/26 19:36:50;;;;;;;3.97;1.60;;;;;;;;;;5211327;26;20089;-64
2024/04/26 19:39:23;;;;;;;3.92;1.75;;;;;;;;;;5219605;27;20011;-66
2024/04/26 19:41:51;;;;;;;4.38;1.65;;;;;;;;;;5227993;27;20023;-64
2024/04/26 19:44:20;;;;;;;5.72;1.98;;;;;;;;;;5247775;27;20018;-63
2024/04/26 19:46:50;;;;;;;3.95;1.67;;;;;;;;;;5228052;27;20017;-64
2024/04/26 19:49:19;;;;;;;3.40;1.65;;;;;;;;;;5237502;27;20002;-64
2024/04/26 19:51:48;;;;;;;3.25;1.58;;;;;;;;;;5242024;27;20003;-64
2024/04/26 19:57:06;;;;;;;3.05;1.60;;;;;;;;;;5170591;27;20225;-65
2024/04/26 19:59:34;;;;;;;5.10;1.58;;;;;;;;;;5254880;27;20052;-62
2024/04/26 20:02:04;;;;;;;6.20;2.10;;;;;;;;;;5254500;27;20073;-61
2024/04/26 20:04:33;;;;;;;6.55;1.65;;;;;;;;;;5237761;27;20022;-62
2024/04/26 20:07:03;;;;;;;5.32;2.42;;;;;;;;;;5227434;27;20011;-65
2024/04/26 20:09:31;;;;;;;5.88;1.80;;;;;;;;;;5245734;27;20002;-63
2024/04/26 20:11:59;;;;;;;3.85;1.67;;;;;;;;;;5246180;27;20022;-64
2024/04/26 20:14:33;;;;;;;3.28;1.75;;;;;;;;;;5242627;27;20072;-62
2024/04/26 20:17:02;;;;;;;10.65;5.50;;;;;;;;;;5214560;27;20073;-62
2024/04/26 20:19:30;;;;;;;6.70;2.63;;;;;;;;;;5249951;27;20029;-61
2024/04/26 20:21:58;;;;;;;6.63;3.38;;;;;;;;;;5241985;27;20107;-62
2024/04/26 20:24:27;;;;;;;13.07;5.15;;;;;;;;;;5232433;27;20015;-62
2024/04/26 20:26:55;;;;;;;;;;;;;;;;;;5226420;27;20840;-61
2024/04/26 20:29:24;;;;;;;5.35;2.13;;;;;;;;;;5235115;27;19971;-61
2024/04/26 20:31:55;;;;;;;5.55;2.00;;;;;;;;;;5239413;27;20007;-61
2024/04/26 20:34:23;;;;;;;3.92;1.70;;;;;;;;;;5236826;27;20048;-61
2024/04/26 20:36:52;;;;;;;3.50;1.73;;;;;;;;;;5227705;27;20014;-62
2024/04/26 20:39:20;;;;;;;3.47;1.77;;;;;;;;;;5214550;27;20015;-61
2024/04/26 20:41:48;;;;;;;4.80;1.90;;;;;;;;;;5236703;27;20080;-61
2024/04/26 20:44:17;;;;;;;3.35;1.67;;;;;;;;;;5247869;27;20015;-62
2024/04/26 20:46:45;;;;;;;5.75;1.95;;;;;;;;;;5223924;27;20051;-63
2024/04/26 20:49:17;;;;;;;5.43;1.75;;;;;;;;;;5239360;27;20070;-62
2024/04/26 20:51:45;;;;;;;4.70;1.80;;;;;;;;;;5246830;27;20039;-61
2024/04/26 20:54:15;;;;;;;5.18;1.83;;;;;;;;;;5246068;27;20042;-63
2024/04/26 20:56:44;;;;;;;5.88;1.70;;;;;;;;;;5237451;27;20002;-62
2024/04/26 20:59:12;;;;;;;5.00;1.75;;;;;;;;;;5248312;27;20007;-63
2024/04/26 21:01:40;;;;;;;6.28;1.73;;;;;;;;;;5236840;27;20043;-62
2024/04/26 21:04:09;;;;;;;6.47;1.90;;;;;;;;;;5244825;26;20094;-63
2024/04/26 21:06:40;;;;;;;6.25;1.95;;;;;;;;;;5229632;27;20197;-62
2024/04/26 21:09:08;;;;;;;5.00;2.25;;;;;;;;;;5229435;26;20002;-61
2024/04/26 21:11:36;;;;;;;4.20;1.88;;;;;;;;;;5246419;27;20062;-61
2024/04/26 21:14:05;;;;;;;4.35;1.92;;;;;;;;;;5247586;27;20021;-63
2024/04/26 21:16:33;;;;;;;5.53;2.17;;;;;;;;;;5242076;27;20076;-62
2024/04/26 21:19:05;;;;;;;5.95;1.90;;;;;;;;;;5251724;27;20176;-63
2024/04/26 21:21:34;;;;;;;3.35;1.80;;;;;;;;;;5243354;27;20096;-62
2024/04/26 21:24:07;;;;;;;;;;;;;;;;;;5251585;27;20006;-62
2024/04/26 21:26:36;;;;;;;4.20;1.60;;;;;;;;;;5245922;27;19927;-61
2024/04/26 21:29:04;;;;;;;3.53;1.88;;;;;;;;;;5230493;27;20028;-62
2024/04/26 21:31:33;;;;;;;6.93;2.20;;;;;;;;;;5241557;27;20014;-62
2024/04/26 21:34:02;;;;;;;3.28;1.80;;;;;;;;;;5246073;27;20058;-62
2024/04/26 21:36:30;;;;;;;7.53;2.92;;;;;;;;;;5239106;27;20010;-61
2024/04/26 21:39:05;;;;;;;19.48;10.25;;;;;;;;;;5236967;27;20003;-63
2024/04/26 21:41:30;;;;;;;12.48;6.40;;;;;;;;;;5220523;27;20019;-62
2024/04/26 21:43:59;;;;;;;7.30;3.10;;;;;;;;;;5250836;27;20069;-63
2024/04/26 21:46:27;;;;;;;;;;;;;;;;;;5241455;27;20071;-62
2024/04/26 21:48:56;;;;;;;8.02;3.10;;;;;;;;;;5240093;27;20051;-65
2024/04/26 21:51:25;;;;;;;6.53;2.60;;;;;;;;;;5238811;27;20149;-63
2024/04/26 21:53:54;;;;;;;4.95;1.98;;;;;;;;;;5246568;27;20001;-63
2024/04/26 21:56:25;;;;;;;6.18;2.30;;;;;;;;;;5225074;27;20002;-62
2024/04/26 21:58:54;;;;;;;6.55;2.20;;;;;;;;;;5251785;27;20006;-61
2024/04/26 22:01:22;;;;;;;5.38;2.25;;;;;;;;;;5251770;27;20029;-61
2024/04/26 22:03:51;;;;;;;6.88;2.47;;;;;;;;;;5249395;27;20018;-63
2024/04/26 22:06:19;;;;;;;7.10;2.30;;;;;;;;;;5241223;27;20064;-62
2024/04/26 22:08:49;;;;;;;6.00;2.40;;;;;;;;;;5247978;27;20026;-62
2024/04/26 22:11:18;;;;;;;6.90;2.38;;;;;;;;;;5243573;27;20017;-63
2024/04/26 22:13:49;;;;;;;5.65;2.15;;;;;;;;;;5254397;27;20030;-62
2024/04/26 22:16:17;;;;;;;5.20;1.98;;;;;;;;;;5249262;27;20011;-62
2024/04/26 22:18:46;;;;;;;6.07;2.60;;;;;;;;;;5250074;27;20114;-62
2024/04/26 22:21:14;;;;;;;5.15;2.30;;;;;;;;;;5224101;27;20073;-62
2024/04/26 22:23:42;;;;;;;5.75;2.38;;;;;;;;;;5240643;27;20006;-61
2024/04/26 22:26:11;;;;;;;5.07;2.35;;;;;;;;;;5263305;26;20003;-62
2024/04/26 22:28:39;;;;;;;8.10;2.47;;;;;;;;;;5252491;27;20022;-62
2024/04/26 22:31:11;;;;;;;6.78;2.53;;;;;;;;;;5240322;27;20050;-61
2024/04/26 22:33:41;;;;;;;5.90;2.38;;;;;;;;;;5245333;27;20019;-61
2024/04/26 22:36:11;;;;;;;5.40;2.20;;;;;;;;;;5241176;27;20003;-62
2024/04/26 22:38:36;;;;;;;6.05;2.50;;;;;;;;;;5249696;27;20080;-62
2024/04/26 22:41:05;;;;;;;4.28;2.05;;;;;;;;;;5244454;27;20006;-61
2024/04/26 22:43:34;;;;;;;;;;;;;;;;;;5254882;27;20006;-60
2024/04/26 22:46:03;;;;;;;5.72;2.33;;;;;;;;;;5249170;27;19927;-61
2024/04/26 22:48:33;;;;;;;4.63;1.98;;;;;;;;;;5251447;27;20084;-61
2024/04/26 22:51:02;;;;;;;4.95;2.22;;;;;;;;;;5257822;27;20013;-61
2024/04/26 22:53:30;;;;;;;3.65;1.85;;;;;;;;;;5256984;27;20070;-61
2024/04/26 22:55:58;;;;;;;5.32;1.70;;;;;;;;;;5249987;27;20028;-60
2024/04/26 22:58:27;;;;;;;4.50;1.98;;;;;;;;;;5247751;27;20006;-62
2024/04/26 23:00:55;;;;;;;4.05;1.88;;;;;;;;;;5252766;27;20095;-61